Time;durP1;ratioP1;P1;durP2;ratioP2;P2;SDS_P1;SDS_P2;PMS_P1;PMS_P2;Temp;Humidity;BMP_temperature;BMP_pressure;BME280_temperature;BME280_humidity;BME280_pressure;Samples;Min_cycle;Max_cycle;Signal;HPM_P1;HPM_P2
2024/04/03 00:02:14;;;;;;;10.87;7.00;;;;;;;9.68;100.00;100497.59;6123842;28;20692;-76
2024/04/03 00:05:34;;;;;;;8.23;6.93;;;;;;;9.71;100.00;100493.78;6130917;28;20326;-76
2024/04/03 00:08:56;;;;;;;12.10;7.93;;;;;;;9.68;100.00;100503.00;6137357;28;20238;-75
2024/04/03 00:12:16;;;;;;;8.03;6.47;;;;;;;9.74;100.00;100512.38;6130914;28;20266;-76
2024/04/03 00:15:39;;;;;;;7.53;5.70;;;;;;;9.67;100.00;100506.69;6134846;28;20239;-75
2024/04/03 00:19:00;;;;;;;9.83;5.97;;;;;;;9.58;100.00;100512.91;6134117;28;20243;-75
2024/04/03 00:22:21;;;;;;;5.90;5.30;;;;;;;9.54;100.00;100509.63;6135069;28;20443;-74
2024/04/03 00:25:42;;;;;;;9.03;6.20;;;;;;;9.57;100.00;100498.59;6127829;28;20803;-75
2024/04/03 00:29:03;;;;;;;6.53;5.83;;;;;;;9.66;100.00;100505.81;6136554;28;20272;-76
2024/04/03 00:32:23;;;;;;;7.67;6.73;;;;;;;9.69;100.00;100510.09;6127656;28;20330;-76
2024/04/03 00:35:44;;;;;;;7.27;6.17;;;;;;;9.62;100.00;100509.78;6136119;28;20247;-75
2024/04/03 00:39:05;;;;;;;8.17;6.00;;;;;;;9.54;100.00;100517.72;6134764;28;20845;-74
2024/04/03 00:42:27;;;;;;;10.63;5.80;;;;;;;9.50;100.00;100510.91;6133172;28;20235;-76
2024/04/03 00:45:48;;;;;;;6.17;5.50;;;;;;;9.51;100.00;100517.97;6134991;28;20243;-76
2024/04/03 00:49:09;;;;;;;9.73;6.33;;;;;;;9.28;100.00;100494.97;6131785;28;20236;-76
2024/04/03 00:52:30;;;;;;;7.43;5.40;;;;;;;9.24;100.00;100517.75;6116616;28;20607;-76
2024/04/03 00:55:51;;;;;;;6.37;5.73;;;;;;;9.27;100.00;100504.03;6129664;28;20232;-76
2024/04/03 00:59:13;;;;;;;4.80;4.40;;;;;;;9.21;100.00;100511.81;6134245;28;20502;-76
2024/04/03 01:02:34;;;;;;;6.83;6.10;;;;;;;9.22;100.00;100506.28;6120257;28;20526;-76
2024/04/03 01:06:02;;;;;;;5.77;4.13;;;;;;;9.16;100.00;100512.22;6134553;28;20247;-77
2024/04/03 01:09:22;;;;;;;4.57;4.17;;;;;;;9.15;100.00;100513.22;6132448;28;20226;-75
2024/04/03 01:12:43;;;;;;;5.10;4.60;;;;;;;9.10;100.00;100496.63;6129265;28;20231;-76
2024/04/03 01:16:07;;;;;;;4.13;3.83;;;;;;;9.11;100.00;100498.34;6127976;28;20224;-75
2024/04/03 01:19:27;;;;;;;4.50;4.10;;;;;;;9.08;100.00;100501.28;6130291;28;20250;-75
2024/04/03 01:22:48;;;;;;;4.83;4.43;;;;;;;8.92;100.00;100500.94;6127416;28;20679;-75
2024/04/03 01:26:09;;;;;;;6.10;5.50;;;;;;;9.01;100.00;100513.56;6131601;28;20242;-75
2024/04/03 01:29:30;;;;;;;5.00;4.50;;;;;;;8.98;100.00;100503.09;6137219;28;20226;-75
2024/04/03 01:32:50;;;;;;;5.63;4.23;;;;;;;8.85;100.00;100502.47;6126967;28;20231;-75
2024/04/03 01:36:11;;;;;;;4.57;3.97;;;;;;;8.88;100.00;100498.66;6123551;28;20939;-75
2024/04/03 01:39:33;;;;;;;5.20;4.30;;;;;;;8.82;100.00;100497.38;6132950;28;20806;-75
2024/04/03 01:42:55;;;;;;;4.40;4.00;;;;;;;8.75;100.00;100506.94;6131539;28;20238;-75
2024/04/03 01:46:15;;;;;;;5.70;3.13;;;;;;;8.77;100.00;100504.97;6127070;28;20227;-76
2024/04/03 01:49:36;;;;;;;5.10;4.20;;;;;;;8.92;100.00;100506.31;6109878;28;20238;-75
2024/04/03 01:52:57;;;;;;;3.93;2.77;;;;;;;8.87;100.00;100508.56;6127752;28;20231;-76
2024/04/03 01:56:18;;;;;;;5.53;5.03;;;;;;;8.74;100.00;100505.25;6120240;28;20235;-76
2024/04/03 01:59:41;;;;;;;4.53;3.93;;;;;;;8.71;100.00;100510.88;6131811;28;20254;-77
2024/04/03 02:03:02;;;;;;;4.00;3.70;;;;;;;8.72;100.00;100507.19;6117261;28;20231;-76
2024/04/03 02:06:21;;;;;;;4.50;4.10;;;;;;;8.61;100.00;100508.16;6131774;28;20231;-76
2024/04/03 02:09:45;;;;;;;9.37;3.93;;;;;;;8.62;100.00;100499.09;6132313;28;20231;-76
2024/04/03 02:13:05;;;;;;;4.83;4.17;;;;;;;8.45;100.00;100514.97;6132009;28;20647;-74
2024/04/03 02:16:30;;;;;;;4.60;3.77;;;;;;;8.53;100.00;100521.38;6128958;28;20593;-76
2024/04/03 02:19:51;;;;;;;4.83;4.30;;;;;;;8.50;100.00;100521.66;6135746;28;20266;-76
2024/04/03 02:23:12;;;;;;;3.20;3.00;;;;;;;8.40;100.00;100519.88;6132612;28;20232;-76
2024/04/03 02:26:32;;;;;;;4.00;3.27;;;;;;;8.52;100.00;100532.25;6128728;28;20227;-76
2024/04/03 02:29:56;;;;;;;3.63;3.33;;;;;;;8.49;100.00;100535.22;6134349;28;20227;-76
2024/04/03 02:33:18;;;;;;;4.30;3.83;;;;;;;8.59;100.00;100534.31;6118810;28;20313;-75
2024/04/03 02:36:39;;;;;;;4.07;3.77;;;;;;;8.59;100.00;100533.44;6118810;28;20242;-76
2024/04/03 02:40:00;;;;;;;5.67;3.40;;;;;;;8.74;100.00;100534.81;6137876;28;20830;-77
2024/04/03 02:43:21;;;;;;;4.63;4.23;;;;;;;8.82;100.00;100538.50;6140771;28;20727;-76
2024/04/03 02:46:42;;;;;;;5.53;3.57;;;;;;;8.72;100.00;100526.88;6126159;28;21984;-75
2024/04/03 02:50:07;;;;;;;5.00;3.13;;;;;;;8.61;100.00;100542.22;6138347;28;20236;-75
2024/04/03 02:53:27;;;;;;;2.33;2.13;;;;;;;8.47;100.00;100534.50;6139042;28;20239;-76
2024/04/03 02:56:51;;;;;;;2.60;2.40;;;;;;;8.37;100.00;100536.25;6136701;28;20239;-76
2024/04/03 03:00:13;;;;;;;2.60;2.40;;;;;;;8.39;100.00;100535.13;6135029;28;20239;-76
2024/04/03 03:03:36;;;;;;;2.90;2.60;;;;;;;8.44;100.00;100521.31;6128137;28;20235;-76
2024/04/03 03:06:57;;;;;;;3.27;2.97;;;;;;;8.48;100.00;100529.00;6119165;28;20231;-76
2024/04/03 03:10:18;;;;;;;2.90;2.40;;;;;;;8.41;100.00;100543.06;6129103;28;20248;-76
2024/04/03 03:13:39;;;;;;;2.33;2.10;;;;;;;8.35;100.00;100531.00;6135891;28;20243;-77
2024/04/03 03:16:59;;;;;;;2.30;2.20;;;;;;;8.43;100.00;100543.78;6118929;28;20231;-77
2024/04/03 03:20:20;;;;;;;2.83;2.63;;;;;;;8.43;100.00;100535.72;6124406;28;20318;-76
2024/04/03 03:23:42;;;;;;;2.77;2.60;;;;;;;8.43;100.00;100541.09;6129896;28;20669;-77
2024/04/03 03:27:06;;;;;;;3.40;3.10;;;;;;;8.48;100.00;100541.56;6113480;28;20250;-77
2024/04/03 03:30:27;;;;;;;2.37;2.17;;;;;;;8.35;100.00;100530.16;6126717;28;20235;-75
2024/04/03 03:33:48;;;;;;;4.07;3.70;;;;;;;8.34;100.00;100533.84;6129370;28;20277;-75
2024/04/03 03:37:09;;;;;;;3.23;2.93;;;;;;;8.32;100.00;100530.44;6133978;28;20263;-76
2024/04/03 03:40:32;;;;;;;3.83;2.60;;;;;;;8.39;100.00;100537.81;6131435;28;20321;-75
2024/04/03 03:43:54;;;;;;;3.33;3.00;;;;;;;8.31;100.00;100531.41;6134016;28;20231;-76
2024/04/03 03:47:14;;;;;;;3.23;2.90;;;;;;;8.43;100.00;100530.34;6128836;28;20228;-76
2024/04/03 03:54:15;;;;;;;2.87;2.67;;;;;;;8.33;100.00;100532.13;6121272;28;20231;-76
2024/04/03 03:57:37;;;;;;;2.83;2.63;;;;;;;8.08;100.00;100536.00;6135393;28;20254;-76
2024/04/03 04:00:57;;;;;;;3.00;2.80;;;;;;;7.96;100.00;100537.03;6134601;28;20235;-76
2024/04/03 04:04:18;;;;;;;3.37;3.07;;;;;;;8.08;100.00;100536.84;6135308;28;20583;-76
2024/04/03 04:07:39;;;;;;;2.80;2.60;;;;;;;8.09;100.00;100540.41;6122667;28;20349;-76
2024/04/03 04:11:00;;;;;;;3.10;2.80;;;;;;;7.98;100.00;100540.44;6142429;28;20641;-76
2024/04/03 04:14:22;;;;;;;7.87;6.63;;;;;;;8.07;100.00;100548.56;6126279;28;20243;-75
2024/04/03 04:17:43;;;;;;;16.80;15.23;;;;;;;8.13;100.00;100547.22;6128294;28;20768;-76
2024/04/03 04:21:05;;;;;;;6.83;6.23;;;;;;;8.16;100.00;100546.09;6127240;28;20251;-75
2024/04/03 04:24:24;;;;;;;2.63;2.43;;;;;;;8.03;100.00;100544.44;6138050;28;20223;-76
2024/04/03 04:27:45;;;;;;;7.73;7.13;;;;;;;7.98;100.00;100549.34;6128162;28;20669;-76
2024/04/03 04:31:07;;;;;;;4.70;4.33;;;;;;;7.83;100.00;100564.03;6131075;28;20503;-76
2024/04/03 04:34:28;;;;;;;7.87;7.07;;;;;;;7.91;100.00;100558.88;6130889;28;20231;-76
2024/04/03 04:37:49;;;;;;;3.67;3.43;;;;;;;7.81;100.00;100568.66;6129873;28;20251;-76
2024/04/03 04:41:10;;;;;;;2.83;2.63;;;;;;;7.66;100.00;100572.59;6129328;28;20601;-76
2024/04/03 04:44:32;;;;;;;1.80;1.70;;;;;;;7.59;100.00;100579.47;6138685;28;20294;-76
2024/04/03 04:47:53;;;;;;;2.00;1.90;;;;;;;7.74;100.00;100574.69;6125178;28;20504;-76
2024/04/03 04:51:19;;;;;;;2.10;1.90;;;;;;;7.77;100.00;100579.78;6127757;28;20609;-75
2024/04/03 04:54:39;;;;;;;5.90;2.10;;;;;;;7.75;100.00;100579.06;6108867;28;20601;-75
2024/04/03 04:58:03;;;;;;;2.50;2.30;;;;;;;7.75;100.00;100579.91;6130295;28;20227;-75
2024/04/03 05:01:23;;;;;;;2.77;2.57;;;;;;;7.59;100.00;100575.91;6129344;28;20235;-76
2024/04/03 05:04:45;;;;;;;2.23;2.00;;;;;;;7.66;100.00;100577.09;6116509;28;20674;-76
2024/04/03 05:08:07;;;;;;;2.53;2.33;;;;;;;7.75;100.00;100579.91;6131986;28;20318;-76
2024/04/03 05:11:28;;;;;;;2.00;1.90;;;;;;;7.75;100.00;100584.41;6128781;28;20247;-76
2024/04/03 05:14:48;;;;;;;2.23;2.07;;;;;;;7.68;100.00;100581.38;6128019;28;20231;-75
2024/04/03 05:18:09;;;;;;;4.77;2.80;;;;;;;7.65;100.00;100589.69;6127532;28;20231;-75
2024/04/03 05:21:33;;;;;;;2.50;2.30;;;;;;;7.67;100.00;100600.28;6113277;28;20227;-74
2024/04/03 05:24:54;;;;;;;2.47;2.27;;;;;;;7.54;100.00;100595.06;6129749;28;20622;-76
2024/04/03 05:28:14;;;;;;;2.83;2.63;;;;;;;7.55;100.00;100595.94;6135766;28;20592;-77
2024/04/03 05:31:36;;;;;;;3.00;2.80;;;;;;;7.53;100.00;100587.16;6129205;28;20590;-72
2024/04/03 05:34:57;;;;;;;3.87;3.57;;;;;;;7.48;100.00;100584.84;6135312;28;20235;-72
2024/04/03 05:38:18;;;;;;;3.50;3.20;;;;;;;7.53;100.00;100582.63;6125411;28;20228;-70
2024/04/03 05:41:39;;;;;;;4.13;3.50;;;;;;;7.50;100.00;100579.34;6122184;28;20232;-73
2024/04/03 05:44:59;;;;;;;2.73;2.53;;;;;;;7.44;100.00;100587.88;6128238;28;20235;-72
2024/04/03 05:48:20;;;;;;;3.10;2.90;;;;;;;7.58;100.00;100595.66;6127118;28;20232;-72
2024/04/03 05:51:45;;;;;;;2.33;2.13;;;;;;;7.47;100.00;100587.66;6130491;28;20227;-73
2024/04/03 05:55:06;;;;;;;2.90;2.70;;;;;;;7.49;100.00;100599.94;6123620;28;20594;-74
2024/04/03 05:58:27;;;;;;;3.70;3.40;;;;;;;7.47;100.00;100595.69;6124499;28;20254;-73
2024/04/03 06:01:47;;;;;;;2.83;2.63;;;;;;;7.55;100.00;100588.72;6120797;28;20232;-76
2024/04/03 06:05:09;;;;;;;2.47;2.27;;;;;;;7.58;100.00;100588.47;6090812;28;20255;-76
2024/04/03 06:08:29;;;;;;;3.13;2.87;;;;;;;7.59;100.00;100600.06;6124571;28;20231;-74
2024/04/03 06:11:50;;;;;;;2.83;2.57;;;;;;;7.69;100.00;100596.50;6120113;28;20228;-76
2024/04/03 06:15:12;;;;;;;2.73;2.53;;;;;;;7.75;100.00;100590.66;6106900;28;20259;-74
2024/04/03 06:18:32;;;;;;;2.37;2.17;;;;;;;7.89;100.00;100594.88;6110304;28;20697;-75
2024/04/03 06:21:52;;;;;;;2.63;2.43;;;;;;;7.96;100.00;100594.25;6119924;28;20254;-74
2024/04/03 06:25:14;;;;;;;2.90;2.70;;;;;;;8.14;100.00;100585.63;6122094;28;20235;-75
2024/04/03 06:28:36;;;;;;;2.97;2.77;;;;;;;8.26;100.00;100598.09;6132218;28;20227;-73
2024/04/03 06:31:58;;;;;;;2.93;2.73;;;;;;;8.11;100.00;100597.50;6116640;28;20243;-74
2024/04/03 06:35:19;;;;;;;2.50;2.30;;;;;;;8.01;100.00;100600.06;6126854;28;20216;-76
2024/04/03 06:38:39;;;;;;;2.73;2.60;;;;;;;8.06;100.00;100602.38;6128273;28;20226;-71
2024/04/03 06:42:01;;;;;;;2.83;2.63;;;;;;;7.85;100.00;100598.78;6125645;28;20235;-74
2024/04/03 06:45:22;;;;;;;3.40;2.30;;;;;;;7.88;100.00;100599.41;6124162;28;22471;-75
2024/04/03 06:48:45;;;;;;;2.40;2.20;;;;;;;7.63;100.00;100604.19;6125778;28;20258;-74
2024/04/03 06:52:05;;;;;;;2.57;2.37;;;;;;;7.75;100.00;100596.00;6113313;28;20226;-77
2024/04/03 06:55:26;;;;;;;3.27;2.60;;;;;;;7.70;100.00;100605.38;6111586;28;20243;-76
2024/04/03 06:58:46;;;;;;;13.97;2.63;;;;;;;7.81;100.00;100592.81;6127406;28;20819;-73
2024/04/03 07:02:08;;;;;;;6.33;2.93;;;;;;;7.91;100.00;100598.28;6124984;28;20227;-74
2024/04/03 07:05:28;;;;;;;4.30;2.03;;;;;;;7.93;100.00;100605.22;6123345;28;20226;-76
2024/04/03 07:08:49;;;;;;;1.63;1.53;;;;;;;8.17;100.00;100597.00;6121001;28;20243;-78
2024/04/03 07:12:09;;;;;;;2.33;2.17;;;;;;;8.04;100.00;100591.78;6114478;28;20251;-78
2024/04/03 07:15:31;;;;;;;2.10;1.90;;;;;;;7.95;100.00;100591.66;6126731;28;20243;-77
2024/04/03 07:18:54;;;;;;;3.33;2.67;;;;;;;8.17;100.00;100594.31;6114881;28;20231;-77
2024/04/03 07:22:15;;;;;;;2.57;2.37;;;;;;;8.09;100.00;100602.16;6122198;28;20493;-77
2024/04/03 07:25:35;;;;;;;6.93;6.23;;;;;;;8.26;100.00;100595.41;6126052;28;20321;-79
2024/04/03 07:28:56;;;;;;;4.73;4.33;;;;;;;8.22;100.00;100593.91;6120032;28;20577;-79
2024/04/03 07:32:16;;;;;;;3.47;3.23;;;;;;;8.22;100.00;100607.34;6134515;28;20223;-80
2024/04/03 07:35:39;;;;;;;2.80;2.50;;;;;;;8.02;100.00;100606.31;6133112;28;20251;-79
2024/04/03 07:39:00;;;;;;;2.50;2.40;;;;;;;8.17;100.00;100601.50;6142149;28;20907;-80
2024/04/03 07:42:21;;;;;;;2.40;2.20;;;;;;;8.03;100.00;100600.81;6134345;28;20278;-79
2024/04/03 07:45:41;;;;;;;1.70;1.60;;;;;;;8.30;100.00;100610.28;6123102;29;20487;-80
2024/04/03 07:49:03;;;;;;;1.97;1.87;;;;;;;8.59;100.00;100606.84;6133684;28;20227;-78
2024/04/03 07:52:25;;;;;;;2.30;2.10;;;;;;;8.94;100.00;100611.88;6134217;28;20321;-79
2024/04/03 07:55:50;;;;;;;2.67;2.47;;;;;;;9.08;100.00;100616.91;6119671;28;20228;-79
2024/04/03 07:59:12;;;;;;;6.40;5.77;;;;;;;9.02;100.00;100609.38;6140880;28;20463;-80
2024/04/03 08:02:35;;;;;;;3.07;2.87;;;;;;;9.10;100.00;100606.88;6131034;28;20525;-79
2024/04/03 08:05:55;;;;;;;2.90;2.70;;;;;;;9.26;100.00;100601.03;6126037;28;20375;-79
2024/04/03 08:09:18;;;;;;;2.63;2.43;;;;;;;9.31;100.00;100601.44;6140227;28;20223;-80
2024/04/03 08:12:40;;;;;;;2.23;2.13;;;;;;;9.62;100.00;100601.28;6130134;28;20239;-80
2024/04/03 08:16:02;;;;;;;2.87;2.67;;;;;;;9.81;100.00;100599.63;6128607;28;20489;-80
2024/04/03 08:19:23;;;;;;;10.77;9.77;;;;;;;9.76;100.00;100601.91;6135247;28;20239;-79
2024/04/03 08:22:44;;;;;;;4.63;4.33;;;;;;;9.89;100.00;100597.13;6132333;28;20235;-79
2024/04/03 08:26:08;;;;;;;2.80;2.60;;;;;;;9.86;100.00;100606.31;6123472;28;20239;-79
2024/04/03 08:29:32;;;;;;;2.80;2.37;;;;;;;9.92;100.00;100613.00;6136041;28;20593;-79
2024/04/03 08:32:52;;;;;;;3.73;3.43;;;;;;;9.82;100.00;100612.97;6130567;28;20243;-79
2024/04/03 08:36:13;;;;;;;2.33;2.20;;;;;;;9.99;100.00;100606.06;6143735;28;20227;-79
2024/04/03 08:39:34;;;;;;;2.00;1.90;;;;;;;10.03;100.00;100602.97;6132696;28;20549;-79
2024/04/03 08:42:56;;;;;;;2.90;2.70;;;;;;;10.25;100.00;100596.47;6138026;28;20231;-79
2024/04/03 08:46:17;;;;;;;3.97;3.57;;;;;;;10.33;100.00;100597.47;6132943;28;20262;-79
2024/04/03 08:49:39;;;;;;;3.37;3.03;;;;;;;10.29;100.00;100612.22;6133687;28;20326;-79
2024/04/03 08:53:00;;;;;;;3.30;3.00;;;;;;;10.18;100.00;100611.53;6132172;28;20240;-80
2024/04/03 08:56:21;;;;;;;3.93;3.57;;;;;;;9.86;100.00;100613.53;6135248;28;20227;-80
2024/04/03 08:59:43;;;;;;;3.90;3.50;;;;;;;10.24;100.00;100622.56;6126579;28;20539;-80
2024/04/03 09:03:04;;;;;;;4.37;3.00;;;;;;;10.14;100.00;100613.63;6134618;28;20507;-78
2024/04/03 09:06:24;;;;;;;3.30;3.00;;;;;;;9.79;100.00;100615.94;6118306;28;20258;-80
2024/04/03 09:09:45;;;;;;;3.20;2.90;;;;;;;9.67;100.00;100614.34;6129838;28;20240;-78
2024/04/03 09:13:06;;;;;;;3.63;3.33;;;;;;;10.09;100.00;100612.31;6123940;28;20617;-80
2024/04/03 09:16:28;;;;;;;3.80;3.50;;;;;;;10.24;100.00;100613.66;6131000;28;20314;-80
2024/04/03 09:19:49;;;;;;;3.83;3.53;;;;;;;10.34;100.00;100612.66;6129957;28;20672;-75
2024/04/03 09:23:10;;;;;;;4.03;3.37;;;;;;;10.65;100.00;100613.38;6122635;28;20598;-75
2024/04/03 09:26:30;;;;;;;3.27;3.07;;;;;;;10.16;100.00;100617.03;6126208;28;20258;-73
2024/04/03 09:29:53;;;;;;;4.37;3.93;;;;;;;10.03;100.00;100610.19;6111221;28;20234;-75
2024/04/03 09:33:16;;;;;;;3.47;3.17;;;;;;;10.11;100.00;100610.38;6130113;28;20238;-72
2024/04/03 09:36:37;;;;;;;4.93;4.53;;;;;;;9.99;100.00;100606.06;6136750;28;20239;-73
2024/04/03 09:39:58;;;;;;;3.40;3.10;;;;;;;9.56;100.00;100612.59;6122530;28;20349;-73
2024/04/03 09:43:23;;;;;;;3.93;3.50;;;;;;;9.93;100.00;100596.69;6134058;28;20223;-73
2024/04/03 09:46:51;;;;;;;5.20;4.80;;;;;;;10.38;100.00;100602.44;6116679;28;20243;-73
2024/04/03 09:50:14;;;;;;;6.20;3.93;;;;;;;10.64;100.00;100602.72;6133550;28;20333;-72
2024/04/03 09:53:36;;;;;;;5.03;4.63;;;;;;;10.55;100.00;100600.88;6127210;28;20235;-73
2024/04/03 09:56:56;;;;;;;5.47;4.13;;;;;;;10.37;100.00;100592.66;6121350;28;21642;-74
2024/04/03 10:00:27;;;;;;;4.33;4.03;;;;;;;9.74;100.00;100595.81;6104386;28;20738;-73
2024/04/03 10:04:05;;;;;;;3.47;3.17;;;;;;;10.05;100.00;100594.75;6112829;28;20572;-74
2024/04/03 10:07:30;;;;;;;7.37;5.00;;;;;;;10.10;100.00;100600.53;6112265;28;20251;-73
2024/04/03 10:10:51;;;;;;;5.07;3.97;;;;;;;10.34;100.00;100601.03;6131175;28;20227;-76
2024/04/03 10:14:19;;;;;;;4.40;4.00;;;;;;;10.39;100.00;100602.28;6128972;28;20235;-74
2024/04/03 10:17:38;;;;;;;6.20;4.80;;;;;;;10.64;100.00;100602.72;6125594;28;20491;-73
2024/04/03 10:21:01;;;;;;;3.47;3.17;;;;;;;11.04;100.00;100601.50;6113630;28;20592;-76
2024/04/03 10:24:25;;;;;;;4.50;4.10;;;;;;;10.98;100.00;100602.09;6114588;28;20674;-74
2024/04/03 10:27:46;;;;;;;4.97;4.47;;;;;;;11.10;100.00;100606.31;6120890;28;20523;-74
2024/04/03 10:31:08;;;;;;;5.53;4.47;;;;;;;10.92;100.00;100596.44;6121632;28;20239;-73
2024/04/03 10:34:28;;;;;;;5.47;4.90;;;;;;;11.26;100.00;100593.06;6124836;28;20235;-72
2024/04/03 10:37:48;;;;;;;4.30;3.90;;;;;;;11.47;100.00;100592.00;6123226;28;20321;-75
2024/04/03 10:41:10;;;;;;;5.80;5.20;;;;;;;11.66;100.00;100589.22;6124459;28;20228;-73
2024/04/03 10:44:31;;;;;;;4.27;3.90;;;;;;;11.56;100.00;100586.53;6121769;28;20317;-73
2024/04/03 10:47:51;;;;;;;5.20;4.47;;;;;;;11.23;100.00;100587.97;6104053;28;20314;-72
2024/04/03 10:51:13;;;;;;;5.77;4.83;;;;;;;11.29;100.00;100594.63;6124198;28;20314;-73
2024/04/03 10:54:33;;;;;;;5.07;4.67;;;;;;;10.97;100.00;100588.75;6125870;28;20838;-77
2024/04/03 10:57:57;;;;;;;5.73;5.23;;;;;;;10.70;100.00;100594.06;6126216;28;20632;-72
2024/04/03 11:01:18;;;;;;;6.33;5.73;;;;;;;10.66;100.00;100588.09;6116422;28;20243;-73
2024/04/03 11:04:38;;;;;;;6.60;5.97;;;;;;;10.92;100.00;100589.19;6124567;28;21046;-75
2024/04/03 11:08:00;;;;;;;5.53;4.63;;;;;;;11.09;100.00;100591.16;6125598;28;20263;-72
2024/04/03 11:11:21;;;;;;;5.60;4.97;;;;;;;11.13;100.00;100584.47;6124235;28;20254;-74
2024/04/03 11:14:43;;;;;;;5.77;5.27;;;;;;;10.66;100.00;100587.25;6124484;28;20256;-72
2024/04/03 11:18:04;;;;;;;5.30;4.80;;;;;;;10.55;100.00;100590.09;6117213;28;20523;-74
2024/04/03 11:21:26;;;;;;;5.30;4.80;;;;;;;11.12;100.00;100585.44;6121797;28;20236;-74
2024/04/03 11:24:47;;;;;;;4.50;4.10;;;;;;;10.89;100.00;100584.06;6117394;28;20215;-75
2024/04/03 11:28:08;;;;;;;5.70;5.03;;;;;;;10.63;100.00;100591.09;6128779;28;20625;-74
2024/04/03 11:31:29;;;;;;;6.37;4.47;;;;;;;10.85;100.00;100585.38;6120545;28;20676;-73
2024/04/03 11:34:50;;;;;;;4.83;4.40;;;;;;;10.55;100.00;100595.50;6135133;28;20235;-72
2024/04/03 11:38:10;;;;;;;5.60;5.10;;;;;;;10.71;100.00;100590.34;6133278;28;20223;-72
2024/04/03 11:41:31;;;;;;;6.57;5.83;;;;;;;10.90;100.00;100580.41;6130084;28;20228;-73
2024/04/03 11:44:53;;;;;;;5.70;4.57;;;;;;;10.56;100.00;100581.88;6122382;28;20342;-75
2024/04/03 11:48:15;;;;;;;8.80;5.73;;;;;;;10.54;100.00;100583.00;6130963;28;20235;-78
2024/04/03 11:51:36;;;;;;;16.47;14.77;;;;;;;10.62;100.00;100586.69;6124352;28;20239;-76
2024/04/03 11:54:57;;;;;;;5.93;5.33;;;;;;;10.40;100.00;100595.06;6132342;28;20235;-76
2024/04/03 11:58:20;;;;;;;4.93;4.53;;;;;;;10.34;100.00;100593.81;6133859;28;20224;-79
2024/04/03 12:01:40;;;;;;;4.83;4.40;;;;;;;10.54;100.00;100596.47;6130457;28;20500;-73
2024/04/03 12:05:04;;;;;;;4.93;4.43;;;;;;;10.60;100.00;100588.66;6138356;28;20235;-75
2024/04/03 12:08:25;;;;;;;5.87;4.73;;;;;;;10.54;100.00;100588.38;6139479;28;20232;-76
2024/04/03 12:11:47;;;;;;;5.47;4.97;;;;;;;10.84;100.00;100589.06;6129063;28;20243;-74
2024/04/03 12:15:09;;;;;;;5.20;4.70;;;;;;;10.97;100.00;100575.28;6133698;28;20247;-74
2024/04/03 12:18:37;;;;;;;5.10;4.60;;;;;;;11.09;100.00;100574.97;6130463;28;20243;-74
2024/04/03 12:21:59;;;;;;;4.40;4.07;;;;;;;11.03;100.00;100574.69;6132423;28;20250;-73
2024/04/03 12:25:21;;;;;;;4.77;4.37;;;;;;;11.02;100.00;100572.97;6133542;28;20227;-73
2024/04/03 12:28:42;;;;;;;4.23;3.83;;;;;;;11.30;100.00;100571.19;6131456;28;20523;-76
2024/04/03 12:32:03;;;;;;;6.00;5.30;;;;;;;11.61;100.00;100573.44;6109918;28;20323;-73
2024/04/03 12:35:29;;;;;;;3.87;3.43;;;;;;;11.78;100.00;100558.31;6127046;28;20525;-73
2024/04/03 12:38:50;;;;;;;5.23;4.73;;;;;;;11.76;100.00;100566.59;6119424;28;20227;-73
2024/04/03 12:42:11;;;;;;;4.40;3.90;;;;;;;11.77;100.00;100557.47;6129398;28;20412;-74
2024/04/03 12:45:31;;;;;;;4.80;4.40;;;;;;;11.54;100.00;100566.94;6114425;28;20234;-71
2024/04/03 12:48:52;;;;;;;4.80;4.33;;;;;;;11.58;100.00;100564.78;6132974;28;20231;-74
2024/04/03 12:52:12;;;;;;;4.43;4.03;;;;;;;11.65;100.00;100558.66;6133177;28;20736;-74
2024/04/03 12:55:34;;;;;;;4.53;4.03;;;;;;;11.64;100.00;100556.09;6130226;28;20244;-77
2024/04/03 12:58:55;;;;;;;4.40;4.00;;;;;;;11.56;100.00;100546.03;6134434;28;20231;-70
2024/04/03 13:02:16;;;;;;;5.20;4.70;;;;;;;11.48;100.00;100551.34;6118360;28;20239;-73
2024/04/03 13:05:37;;;;;;;5.03;4.63;;;;;;;11.42;100.00;100549.25;6130752;28;20358;-68
2024/04/03 13:08:58;;;;;;;4.03;3.63;;;;;;;11.32;100.00;100547.59;6144466;28;22369;-74
2024/04/03 13:12:21;;;;;;;5.83;3.63;;;;;;;11.35;100.00;100537.34;6132824;28;20227;-73
2024/04/03 13:15:41;;;;;;;4.00;3.70;;;;;;;11.43;100.00;100536.63;6109896;28;20227;-75
2024/04/03 13:19:01;;;;;;;4.13;3.83;;;;;;;11.57;100.00;100536.97;6133256;28;20310;-72
2024/04/03 13:22:22;;;;;;;3.47;3.17;;;;;;;11.76;100.00;100534.19;6126551;28;20235;-75
2024/04/03 13:25:43;;;;;;;3.93;3.53;;;;;;;11.87;100.00;100535.78;6117473;28;20235;-73
2024/04/03 13:29:04;;;;;;;4.00;3.43;;;;;;;11.70;100.00;100529.34;6129842;28;20311;-79
2024/04/03 13:32:25;;;;;;;4.33;3.93;;;;;;;11.56;100.00;100529.00;6126524;28;20235;-72
2024/04/03 13:35:46;;;;;;;4.30;3.97;;;;;;;11.54;100.00;100528.28;6128964;28;20235;-74
2024/04/03 13:39:08;;;;;;;6.67;4.40;;;;;;;11.59;100.00;100534.09;6133216;28;20633;-73
2024/04/03 13:42:29;;;;;;;4.37;3.30;;;;;;;11.83;100.00;100532.56;6116649;28;20235;-74
2024/04/03 13:45:50;;;;;;;4.03;3.70;;;;;;;11.86;100.00;100534.09;6134987;28;20254;-73
2024/04/03 13:49:15;;;;;;;5.67;4.33;;;;;;;11.82;100.00;100528.16;6134415;28;20239;-75
2024/04/03 13:52:36;;;;;;;3.83;3.43;;;;;;;11.63;100.00;100525.56;6114927;28;20235;-73
2024/04/03 13:55:57;;;;;;;4.07;3.70;;;;;;;11.49;100.00;100522.50;6130461;28;20521;-72
2024/04/03 13:59:19;;;;;;;10.03;9.03;;;;;;;11.47;100.00;100519.13;6143421;28;20329;-72
2024/04/03 14:02:41;;;;;;;9.40;6.53;;;;;;;11.40;100.00;100518.00;6126357;28;20243;-71
2024/04/03 14:06:04;;;;;;;3.93;3.63;;;;;;;11.45;100.00;100518.41;6133303;28;20239;-72
2024/04/03 14:09:24;;;;;;;3.50;3.20;;;;;;;11.39;100.00;100514.44;6121384;28;20239;-72
2024/04/03 14:12:44;;;;;;;3.83;3.27;;;;;;;11.39;100.00;100517.16;6122774;28;20235;-72
2024/04/03 14:16:06;;;;;;;3.77;3.47;;;;;;;11.12;100.00;100514.44;6131048;28;20230;-74
2024/04/03 14:19:27;;;;;;;3.57;3.27;;;;;;;11.12;100.00;100517.13;6111556;28;20612;-75
2024/04/03 14:22:48;;;;;;;7.13;4.20;;;;;;;11.26;100.00;100512.09;6122197;28;20628;-72
2024/04/03 14:26:09;;;;;;;3.70;3.40;;;;;;;11.32;100.00;100515.22;6127171;28;20565;-74
2024/04/03 14:29:30;;;;;;;4.20;3.70;;;;;;;11.30;100.00;100506.41;6123823;28;20246;-74
2024/04/03 14:32:51;;;;;;;4.47;4.03;;;;;;;11.11;100.00;100504.66;6120475;28;20326;-74
2024/04/03 14:36:12;;;;;;;4.17;3.80;;;;;;;11.27;100.00;100504.88;6126514;28;20228;-72
2024/04/03 14:39:33;;;;;;;3.83;3.53;;;;;;;11.20;100.00;100501.91;6129987;28;20226;-70
2024/04/03 14:42:53;;;;;;;4.17;3.80;;;;;;;11.28;100.00;100493.09;6121300;28;20230;-71
2024/04/03 14:46:13;;;;;;;7.00;5.93;;;;;;;11.17;100.00;100507.63;6119295;28;20227;-71
2024/04/03 14:49:35;;;;;;;7.07;6.37;;;;;;;11.09;100.00;100510.22;6123855;28;20325;-73
2024/04/03 14:52:56;;;;;;;4.43;4.03;;;;;;;10.95;100.00;100499.88;6121875;28;20235;-71
2024/04/03 14:56:17;;;;;;;6.77;6.17;;;;;;;10.81;100.00;100507.59;6124680;28;20324;-72
2024/04/03 14:59:37;;;;;;;13.97;12.37;;;;;;;10.85;100.00;100506.31;6113890;28;20243;-74
2024/04/03 15:02:58;;;;;;;7.37;5.70;;;;;;;10.80;100.00;100505.91;6118684;28;20246;-73
2024/04/03 15:06:18;;;;;;;7.60;6.83;;;;;;;10.80;100.00;100501.38;6121683;28;20653;-72
2024/04/03 15:09:41;;;;;;;4.50;4.07;;;;;;;10.87;100.00;100498.91;6125723;28;20243;-72
2024/04/03 15:13:01;;;;;;;5.03;4.53;;;;;;;10.89;100.00;100497.78;6125058;28;20235;-74
2024/04/03 15:16:21;;;;;;;9.23;8.40;;;;;;;11.05;100.00;100507.97;6124054;28;20235;-71
2024/04/03 15:19:42;;;;;;;4.83;4.33;;;;;;;11.04;100.00;100506.25;6112013;28;20541;-70
2024/04/03 15:23:03;;;;;;;5.07;4.67;;;;;;;11.08;100.00;100507.66;6124752;28;20239;-74
2024/04/03 15:26:26;;;;;;;8.83;6.30;;;;;;;11.00;100.00;100503.00;6127004;28;20228;-71
2024/04/03 15:29:47;;;;;;;7.27;5.93;;;;;;;11.05;100.00;100495.31;6115200;28;20227;-74
2024/04/03 15:33:07;;;;;;;4.43;4.03;;;;;;;11.06;100.00;100499.72;6127151;28;20227;-74
2024/04/03 15:36:27;;;;;;;10.03;9.10;;;;;;;11.17;100.00;100504.06;6130622;28;20240;-73